createdAt,value
2023-02-18T00:01:42.475Z,102128.75
2023-02-18T00:04:11.055Z,102128.63
2023-02-18T00:06:39.526Z,102135.50
2023-02-18T00:09:09.434Z,102138.38
2023-02-18T00:11:38.684Z,102140.75
2023-02-18T00:14:10.024Z,102142.06
2023-02-18T00:16:38.214Z,102157.00
2023-02-18T00:19:08.418Z,102153.31
2023-02-18T00:21:38.756Z,102142.25
2023-02-18T00:24:07.950Z,102154.19
2023-02-18T00:26:36.883Z,102160.84
2023-02-18T00:29:11.680Z,102147.66
2023-02-18T00:31:41.525Z,102146.38
2023-02-18T00:34:09.824Z,102152.91
2023-02-18T00:36:38.286Z,102127.75
2023-02-18T00:39:10.626Z,102123.16
2023-02-18T00:41:38.850Z,102120.88
2023-02-18T00:44:09.420Z,102115.97
2023-02-18T00:46:37.549Z,102120.28
2023-02-18T00:49:07.338Z,102113.06
2023-02-18T00:51:35.787Z,102106.72
2023-02-18T00:54:04.292Z,102107.78
2023-02-18T00:56:32.587Z,102113.59
2023-02-18T00:59:00.623Z,102109.28
2023-02-18T01:01:30.382Z,102100.38
2023-02-18T01:03:58.352Z,102109.94
2023-02-18T01:06:26.336Z,102086.75
2023-02-18T01:08:54.333Z,102079.63
2023-02-18T01:11:22.502Z,102076.00
2023-02-18T01:13:50.588Z,102082.97
2023-02-18T01:16:19.025Z,102076.72
2023-02-18T01:18:48.604Z,102086.41
2023-02-18T01:21:17.384Z,102080.91
2023-02-18T01:23:45.717Z,102081.88
2023-02-18T01:26:13.892Z,102069.31
2023-02-18T01:28:42.512Z,102056.28
2023-02-18T01:31:14.615Z,102051.88
2023-02-18T01:33:43.704Z,102063.69
2023-02-18T01:36:13.543Z,102054.06
2023-02-18T01:38:42.092Z,102062.63
2023-02-18T01:41:10.749Z,102048.22
2023-02-18T01:43:39.509Z,102042.84
2023-02-18T01:46:14.660Z,102052.53
2023-02-18T01:48:46.900Z,102056.28
2023-02-18T01:51:19.688Z,102041.66
2023-02-18T01:53:54.157Z,102035.97
2023-02-18T01:56:26.392Z,102047.88
2023-02-18T01:58:58.216Z,102043.38
2023-02-18T02:01:28.047Z,102039.69
2023-02-18T02:03:56.197Z,102053.81
2023-02-18T02:06:27.092Z,102045.75
2023-02-18T02:08:59.667Z,102043.06
2023-02-18T02:11:49.988Z,102045.66
2023-02-18T02:14:26.776Z,102036.84
2023-02-18T02:17:04.088Z,102041.34
2023-02-18T02:20:14.789Z,102051.75
2023-02-18T02:23:03.805Z,102042.72
2023-02-18T02:25:55.432Z,102047.13
2023-02-18T02:28:58.448Z,102040.56
2023-02-18T02:31:48.339Z,102033.34
2023-02-18T02:34:43.043Z,102043.75
2023-02-18T02:37:17.748Z,102040.09
2023-02-18T02:39:57.156Z,102047.53
2023-02-18T02:42:32.016Z,102037.53
2023-02-18T02:45:08.801Z,102011.75
2023-02-18T02:47:44.155Z,102002.94
2023-02-18T02:50:18.821Z,101995.72
2023-02-18T02:52:52.372Z,102011.97
2023-02-18T02:55:20.340Z,102011.75
2023-02-18T02:57:51.963Z,102014.44
2023-02-18T03:00:24.555Z,102017.22
2023-02-18T03:03:19.441Z,102012.47
2023-02-18T03:06:06.359Z,102006.25
2023-02-18T03:08:48.326Z,102013.34
2023-02-18T03:11:18.972Z,102009.06
2023-02-18T03:13:57.609Z,102007.22
2023-02-18T03:16:29.625Z,101996.56
2023-02-18T03:19:07.516Z,101982.41
2023-02-18T03:21:41.157Z,101981.44
2023-02-18T03:24:14.901Z,101982.41
2023-02-18T03:26:48.219Z,101977.03
2023-02-18T03:29:19.028Z,101987.06
2023-02-18T03:31:50.635Z,101990.00
2023-02-18T03:34:24.178Z,101986.59
2023-02-18T03:36:55.424Z,101973.16
2023-02-18T03:39:26.103Z,101976.81
2023-02-18T03:41:54.720Z,101969.59
2023-02-18T03:44:23.211Z,101986.06
2023-02-18T03:46:51.187Z,102000.13
2023-02-18T03:49:19.686Z,101979.50
2023-02-18T03:51:47.677Z,101984.13
2023-02-18T03:54:17.371Z,101980.91
2023-02-18T03:56:45.810Z,101966.28
2023-02-18T03:59:14.309Z,101971.88
2023-02-18T04:01:42.357Z,101987.16
2023-02-18T04:04:10.512Z,101972.97
2023-02-18T04:06:40.143Z,101993.38
2023-02-18T04:09:09.298Z,101979.34
2023-02-18T04:11:40.222Z,101981.91
2023-02-18T04:14:09.097Z,101976.75
2023-02-18T04:16:37.248Z,101992.00
2023-02-18T04:19:05.572Z,101985.78
2023-02-18T04:21:34.520Z,101979.44
2023-02-18T04:24:02.528Z,101986.53
2023-02-18T04:26:31.032Z,101986.63
2023-02-18T04:29:00.507Z,101969.44
2023-02-18T04:31:28.873Z,101961.47
2023-02-18T04:33:57.003Z,101973.19
2023-02-18T04:36:24.969Z,101960.41
2023-02-18T04:38:52.897Z,101963.72
2023-02-18T04:41:20.933Z,101944.50
2023-02-18T04:43:48.891Z,101964.78
2023-02-18T04:46:18.318Z,101966.75
2023-02-18T04:48:46.597Z,101963.09
2023-02-18T04:51:14.534Z,101971.38
2023-02-18T04:53:42.527Z,101958.69
2023-02-18T04:56:10.756Z,101971.03
2023-02-18T04:58:38.852Z,101957.94
2023-02-18T05:01:07.507Z,101976.31
2023-02-18T05:03:36.938Z,101969.09
2023-02-18T05:06:05.264Z,101971.66
2023-02-18T05:08:33.189Z,101953.56
2023-02-18T05:11:01.094Z,101978.00
2023-02-18T05:13:29.022Z,101975.06
2023-02-18T05:15:56.995Z,101969.81
2023-02-18T05:18:25.024Z,101983.13
2023-02-18T05:20:54.536Z,101984.38
2023-02-18T05:23:22.488Z,101974.28
2023-02-18T05:25:50.567Z,101970.44
2023-02-18T05:28:18.765Z,101969.41
2023-02-18T05:30:47.152Z,101965.09
2023-02-18T05:33:15.489Z,101969.31
2023-02-18T05:35:43.556Z,101980.53
2023-02-18T05:38:13.035Z,101954.53
2023-02-18T05:40:41.025Z,101962.50
2023-02-18T05:43:09.014Z,101944.13
2023-02-18T05:45:37.396Z,101946.06
2023-02-18T05:48:05.795Z,101956.59
2023-02-18T05:50:34.027Z,101954.25
2023-02-18T05:53:02.273Z,101944.44
2023-02-18T05:55:31.687Z,101949.72
2023-02-18T05:57:59.709Z,101958.13
2023-02-18T06:00:30.121Z,101965.41
2023-02-18T06:02:58.116Z,101953.41
2023-02-18T06:05:26.908Z,101940.91
2023-02-18T06:07:56.667Z,101950.19
2023-02-18T06:10:24.965Z,101950.47
2023-02-18T06:12:54.941Z,101945.22
2023-02-18T06:15:23.039Z,101943.50
2023-02-18T06:17:51.568Z,101952.69
2023-02-18T06:20:19.941Z,101939.16
2023-02-18T06:22:47.949Z,101943.78
2023-02-18T06:25:16.155Z,101956.13
2023-02-18T06:27:44.203Z,101965.69
2023-02-18T06:30:14.550Z,101947.22
2023-02-18T06:32:42.790Z,101961.50
2023-02-18T06:35:10.918Z,101957.72
2023-02-18T06:37:38.950Z,101952.47
2023-02-18T06:40:08.590Z,101952.00
2023-02-18T06:42:36.687Z,101973.50
2023-02-18T06:45:06.763Z,101958.25
2023-02-18T06:47:36.397Z,101961.81
2023-02-18T06:50:04.793Z,101964.50
2023-02-18T06:52:33.600Z,101953.13
2023-02-18T06:55:01.679Z,101961.03
2023-02-18T06:57:32.715Z,101966.53
2023-02-18T07:00:01.936Z,101957.38
2023-02-18T07:02:29.914Z,101970.09
2023-02-18T07:04:59.356Z,101960.31
2023-02-18T07:07:27.513Z,101980.19
2023-02-18T07:09:55.547Z,101967.94
2023-02-18T07:12:23.576Z,101967.56
2023-02-18T07:14:51.602Z,101951.31
2023-02-18T07:17:20.016Z,101960.00
2023-02-18T07:19:48.065Z,101951.56
2023-02-18T07:22:18.249Z,101954.34
2023-02-18T07:24:46.420Z,101941.78
2023-02-18T07:27:14.522Z,101932.97
2023-02-18T07:29:42.700Z,101947.59
2023-02-18T07:32:13.306Z,101938.69
2023-02-18T07:34:41.376Z,101948.13
2023-02-18T07:37:10.588Z,101943.06
2023-02-18T07:39:41.914Z,101942.75
2023-02-18T07:42:10.224Z,101941.69
2023-02-18T07:44:39.768Z,101951.56
2023-02-18T07:47:09.637Z,101957.88
2023-02-18T07:49:37.673Z,101958.84
2023-02-18T07:52:06.037Z,101960.69
2023-02-18T07:54:34.106Z,101951.78
2023-02-18T07:57:04.020Z,101950.06
2023-02-18T07:59:32.077Z,101971.22
2023-02-18T08:02:00.056Z,101974.22
2023-02-18T08:04:28.435Z,101957.28
2023-02-18T08:06:56.668Z,101965.72
2023-02-18T08:09:24.805Z,101975.47
2023-02-18T08:11:52.910Z,101972.41
2023-02-18T08:14:22.463Z,101971.03
2023-02-18T08:16:50.649Z,101974.88
2023-02-18T08:19:19.713Z,101971.53
2023-02-18T08:21:47.874Z,101976.16
2023-02-18T08:24:16.139Z,101973.72
2023-02-18T08:26:59.510Z,101986.16
2023-02-18T08:29:30.890Z,101973.72
2023-02-18T08:31:59.773Z,101962.19
2023-02-18T08:34:28.330Z,101986.88
2023-02-18T08:36:56.371Z,101984.31
2023-02-18T08:39:24.560Z,101970.91
2023-02-18T08:41:52.727Z,101980.78
2023-02-18T08:44:20.903Z,101967.38
2023-02-18T08:46:52.404Z,101975.72
2023-02-18T08:49:21.519Z,101983.53
2023-02-18T08:51:49.682Z,101975.06
2023-02-18T08:54:18.490Z,101981.63
2023-02-18T08:56:46.730Z,101983.13
2023-02-18T08:59:14.903Z,102000.94
2023-02-18T09:01:43.031Z,101989.94
2023-02-18T09:04:12.457Z,101979.00
2023-02-18T09:06:41.187Z,101999.75
2023-02-18T09:09:10.883Z,101990.72
2023-02-18T09:11:39.459Z,101996.81
2023-02-18T09:14:39.316Z,101999.50
2023-02-18T09:17:09.116Z,101999.28
2023-02-18T09:19:38.782Z,102018.81
2023-02-18T09:22:08.577Z,102009.56
2023-02-18T09:24:40.292Z,102006.25
2023-02-18T09:27:12.261Z,102011.53
2023-02-18T09:29:41.287Z,102016.66
2023-02-18T09:32:14.483Z,102009.78
2023-02-18T09:34:49.651Z,102019.47
2023-02-18T09:37:18.272Z,102002.50
2023-02-18T09:39:46.489Z,102023.13
2023-02-18T09:42:18.092Z,102008.94
2023-02-18T09:44:52.386Z,102006.50
2023-02-18T09:47:25.961Z,102028.59
2023-02-18T09:49:59.779Z,102006.59
2023-02-18T09:52:33.093Z,101994.78
2023-02-18T09:55:01.699Z,102008.06
2023-02-18T09:57:35.329Z,102006.59
2023-02-18T10:00:09.522Z,102010.03
2023-02-18T10:02:39.419Z,102006.38
2023-02-18T10:05:15.190Z,102020.78
2023-02-18T10:07:44.692Z,102022.47
2023-02-18T10:10:22.330Z,102024.19
2023-02-18T10:12:51.458Z,102018.81
2023-02-18T10:15:25.195Z,102028.59
2023-02-18T10:17:53.915Z,102022.16
2023-02-18T10:20:27.012Z,102028.38
2023-02-18T10:22:56.917Z,102038.78
2023-02-18T10:25:27.405Z,102030.09
2023-02-18T10:27:56.176Z,102031.06
2023-02-18T10:30:28.879Z,102043.75
2023-02-18T10:33:02.212Z,102028.38
2023-02-18T10:35:38.862Z,102038.16
2023-02-18T10:38:15.543Z,102061.13
2023-02-18T10:40:54.713Z,102039.25
2023-02-18T10:43:29.315Z,102033.00
2023-02-18T10:46:06.886Z,102064.91
2023-02-18T10:48:49.432Z,102038.91
2023-02-18T10:51:24.935Z,102046.97
2023-02-18T10:53:54.956Z,102042.56
2023-02-18T10:59:34.474Z,102051.88
2023-02-18T11:02:05.042Z,102055.31
2023-02-18T11:04:39.554Z,102042.13
2023-02-18T11:07:15.941Z,102027.59
2023-02-18T11:09:49.262Z,102041.34
2023-02-18T11:12:22.040Z,102028.09
2023-02-18T11:15:04.969Z,102028.22
2023-02-18T11:17:35.004Z,102007.47
2023-02-18T11:20:19.927Z,102031.63
2023-02-18T11:22:50.233Z,102023.41
2023-02-18T11:25:23.120Z,102032.94
2023-02-18T11:27:54.164Z,102037.22
2023-02-18T11:30:25.953Z,102023.06
2023-02-18T11:36:24.153Z,102032.19
2023-02-18T11:38:56.666Z,102040.78
2023-02-18T11:41:33.094Z,102045.94
2023-02-18T11:44:03.141Z,102060.72
2023-02-18T11:46:31.206Z,102050.22
2023-02-18T11:49:22.818Z,102041.91
2023-02-18T11:51:51.999Z,102039.22
2023-02-18T11:54:26.885Z,102024.34
2023-02-18T11:56:59.742Z,102018.72
2023-02-18T11:59:30.836Z,102015.69
2023-02-18T12:02:07.630Z,102035.78
2023-02-18T12:04:42.969Z,102010.59
2023-02-18T12:07:18.839Z,102039.59
2023-02-18T12:09:51.112Z,102024.81
2023-02-18T12:12:26.376Z,102016.38
2023-02-18T12:14:56.665Z,102010.75
2023-02-18T12:17:51.626Z,102014.28
2023-02-18T12:20:43.162Z,102015.91
2023-02-18T12:23:16.437Z,102017.47
2023-02-18T12:25:57.085Z,101998.28
2023-02-18T12:28:40.553Z,102021.56
2023-02-18T12:31:23.070Z,102022.91
2023-02-18T12:34:03.790Z,102016.31
2023-02-18T12:36:46.298Z,101984.59
2023-02-18T12:39:30.271Z,101982.63
2023-02-18T12:42:16.912Z,101989.84
2023-02-18T12:44:56.386Z,101980.31
2023-02-18T12:47:49.519Z,101977.50
2023-02-18T12:50:32.119Z,101991.94
2023-02-18T12:53:17.926Z,101958.19
2023-02-18T12:56:00.873Z,101957.19
2023-02-18T12:58:43.592Z,101950.34
2023-02-18T13:01:27.244Z,101951.56
2023-02-18T13:04:20.404Z,101962.22
2023-02-18T13:07:28.020Z,101959.16
2023-02-18T13:10:20.334Z,101953.31
2023-02-18T13:12:57.980Z,101986.81
2023-02-18T13:15:38.347Z,101951.84
2023-02-18T13:18:12.908Z,101955.50
2023-02-18T13:20:44.644Z,101968.13
2023-02-18T13:23:19.957Z,101973.34
2023-02-18T13:25:50.632Z,101957.19
2023-02-18T13:28:26.571Z,101939.31
2023-02-18T13:31:05.662Z,101949.97
2023-02-18T13:33:41.421Z,101950.34
2023-02-18T13:36:23.032Z,101963.06
2023-02-18T13:39:04.029Z,101956.72
2023-02-18T13:41:37.593Z,101962.22
2023-02-18T13:44:10.567Z,101951.06
2023-02-18T13:49:41.492Z,101952.34
2023-02-18T13:52:21.508Z,101946.31
2023-02-18T13:54:51.791Z,101953.38
2023-02-18T13:57:23.564Z,101963.13
2023-02-18T13:59:57.825Z,101941.81
2023-02-18T14:02:34.904Z,101944.63
2023-02-18T14:05:26.896Z,101989.88
2023-02-18T14:08:14.341Z,101944.97
2023-02-18T14:10:43.366Z,101945.97
2023-02-18T14:13:28.895Z,101941.22
2023-02-18T14:16:01.510Z,101933.91
2023-02-18T14:18:37.025Z,101926.34
2023-02-18T14:21:21.132Z,101930.25
2023-02-18T14:24:02.383Z,101927.31
2023-02-18T14:26:33.492Z,101934.31
2023-02-18T14:29:12.163Z,101959.00
2023-02-18T14:32:00.357Z,101923.44
2023-02-18T14:35:19.113Z,101927.75
2023-02-18T14:38:24.037Z,101919.78
2023-02-18T14:41:09.396Z,101924.75
2023-02-18T14:43:58.005Z,101941.97
2023-02-18T14:46:41.577Z,101944.22
2023-02-18T14:49:32.877Z,101944.09
2023-02-18T14:52:01.473Z,101959.47
2023-02-18T14:54:32.553Z,101931.13
2023-02-18T14:57:04.491Z,101940.66
2023-02-18T14:59:36.745Z,101943.47
2023-02-18T15:02:05.523Z,101936.03
2023-02-18T15:04:33.539Z,101954.50
2023-02-18T15:07:03.436Z,101936.81
2023-02-18T15:09:35.266Z,101929.59
2023-02-18T15:12:08.311Z,101917.25
2023-02-18T15:14:38.974Z,101927.50
2023-02-18T15:17:09.617Z,101919.78
2023-02-18T15:19:41.989Z,101924.22
2023-02-18T15:22:17.246Z,101922.75
2023-02-18T15:24:47.517Z,101931.44
2023-02-18T15:27:18.377Z,101919.91
2023-02-18T15:29:50.576Z,101927.88
2023-02-18T15:32:22.314Z,101941.06
2023-02-18T15:34:53.144Z,101934.06
2023-02-18T15:37:21.683Z,101940.66
2023-02-18T15:39:51.934Z,101942.59
2023-02-18T15:42:27.600Z,101940.03
2023-02-18T15:44:59.083Z,101937.56
2023-02-18T15:47:27.485Z,101952.13
2023-02-18T15:50:00.944Z,101932.34
2023-02-18T15:52:32.227Z,101943.44
2023-02-18T15:55:09.044Z,101933.66
2023-02-18T15:57:38.144Z,101938.78
2023-02-18T16:00:15.497Z,101933.03
2023-02-18T16:02:55.495Z,101947.09
2023-02-18T16:05:33.860Z,101943.94
2023-02-18T16:08:08.505Z,101946.47
2023-02-18T16:10:51.641Z,101930.44
2023-02-18T16:13:20.605Z,101952.00
2023-02-18T16:15:52.072Z,101944.63
2023-02-18T16:18:38.238Z,101927.84
2023-02-18T16:21:11.921Z,101932.34
2023-02-18T16:23:44.818Z,101933.97
2023-02-18T16:26:23.686Z,101930.44
2023-02-18T16:28:53.973Z,101920.31
2023-02-18T16:31:22.666Z,101941.19
2023-02-18T16:33:50.879Z,101926.53
2023-02-18T16:36:19.459Z,101925.91
2023-02-18T16:38:47.682Z,101920.44
2023-02-18T16:41:19.874Z,101935.81
2023-02-18T16:43:47.957Z,101933.75
2023-02-18T16:46:18.409Z,101932.69
2023-02-18T16:48:50.562Z,101920.31
2023-02-18T16:51:23.422Z,101921.28
2023-02-18T16:53:51.485Z,101936.59
2023-02-18T16:56:23.439Z,101932.31
2023-02-18T16:58:52.401Z,101934.38
2023-02-18T17:01:29.240Z,101931.81
2023-02-18T17:03:58.886Z,101937.06
2023-02-18T17:06:26.967Z,101939.09
2023-02-18T17:08:55.601Z,101942.75
2023-02-18T17:14:21.777Z,101941.19
2023-02-18T17:16:53.232Z,101943.88
2023-02-18T17:19:22.254Z,101953.13
2023-02-18T17:21:50.679Z,101949.44
2023-02-18T17:24:21.435Z,101955.69
2023-02-18T17:26:49.610Z,101960.19
2023-02-18T17:29:22.200Z,101953.00
2023-02-18T17:31:57.830Z,101945.16
2023-02-18T17:34:27.802Z,101950.91
2023-02-18T17:36:57.700Z,101948.41
2023-02-18T17:39:27.015Z,101959.16
2023-02-18T17:41:59.000Z,101965.72
2023-02-18T17:44:29.781Z,101981.31
2023-02-18T17:46:58.308Z,101991.06
2023-02-18T17:49:26.629Z,101987.88
2023-02-18T17:51:58.050Z,101992.91
2023-02-18T17:54:28.269Z,101993.22
2023-02-18T17:56:56.924Z,101988.09
2023-02-18T17:59:25.180Z,101981.97
2023-02-18T18:01:54.733Z,102002.47
2023-02-18T18:04:22.873Z,101998.84
2023-02-18T18:06:51.239Z,101995.06
2023-02-18T18:09:19.540Z,101996.25
2023-02-18T18:11:52.949Z,102001.53
2023-02-18T18:14:23.778Z,101991.84
2023-02-18T18:16:53.924Z,102006.91
2023-02-18T18:19:34.107Z,101993.56
2023-02-18T18:22:03.271Z,101999.06
2023-02-18T18:24:31.544Z,102013.75
2023-02-18T18:27:00.699Z,102013.97
2023-02-18T18:29:32.024Z,102019.22
2023-02-18T18:32:00.201Z,102002.25
2023-02-18T18:34:30.703Z,102010.09
2023-02-18T18:36:58.823Z,102010.84
2023-02-18T18:39:27.066Z,102016.66
2023-02-18T18:41:57.763Z,102014.44
2023-02-18T18:44:28.744Z,102019.03
2023-02-18T18:46:58.292Z,102038.03
2023-02-18T18:49:42.762Z,102030.31
2023-02-18T18:52:18.884Z,102043.75
2023-02-18T18:54:47.534Z,102042.56
2023-02-18T18:57:16.127Z,102043.63
2023-02-18T18:59:44.408Z,102054.78
2023-02-18T19:02:20.258Z,102054.13
2023-02-18T19:04:49.310Z,102062.31
2023-02-18T19:07:32.033Z,102052.88
2023-02-18T19:10:00.276Z,102065.50
2023-02-18T19:12:28.651Z,102078.19
2023-02-18T19:14:56.987Z,102066.78
2023-02-18T19:17:25.086Z,102066.38
2023-02-18T19:19:53.576Z,102068.41
2023-02-18T19:22:23.068Z,102074.03
2023-02-18T19:24:51.138Z,102077.16
2023-02-18T19:27:19.101Z,102078.97
2023-02-18T19:29:50.128Z,102080.03
2023-02-18T19:32:26.680Z,102081.00
2023-02-18T19:34:54.763Z,102082.25
2023-02-18T19:37:24.798Z,102085.81
2023-02-18T19:39:53.128Z,102096.41
2023-02-18T19:42:21.896Z,102080.44
2023-02-18T19:44:49.919Z,102094.50
2023-02-18T19:47:18.098Z,102094.81
2023-02-18T19:49:46.374Z,102095.97
2023-02-18T19:52:15.109Z,102097.81
2023-02-18T19:54:47.079Z,102084.50
2023-02-18T19:57:15.827Z,102072.94
2023-02-18T19:59:45.132Z,102075.69
2023-02-18T20:02:15.955Z,102090.94
2023-02-18T20:04:45.469Z,102081.47
2023-02-18T20:07:15.484Z,102077.81
2023-02-18T20:09:46.058Z,102087.59
2023-02-18T20:12:14.580Z,102099.06
2023-02-18T20:14:44.439Z,102089.41
2023-02-18T20:17:13.262Z,102087.69
2023-02-18T20:19:41.385Z,102078.59
2023-02-18T20:22:10.813Z,102070.63
2023-02-18T20:24:40.142Z,102079.53
2023-02-18T20:27:11.199Z,102095.19
2023-02-18T20:29:39.214Z,102091.66
2023-02-18T20:32:08.180Z,102095.06
2023-02-18T20:34:36.357Z,102113.84
2023-02-18T20:37:05.798Z,102106.56
2023-02-18T20:39:35.264Z,102116.31
2023-02-18T20:42:15.463Z,102107.41
2023-02-18T20:44:50.292Z,102096.59
2023-02-18T20:47:19.155Z,102103.78
2023-02-18T20:49:47.972Z,102096.16
2023-02-18T20:52:16.298Z,102094.75
2023-02-18T20:54:44.681Z,102096.59
2023-02-18T20:57:12.892Z,102085.00
2023-02-18T20:59:41.048Z,102084.16
2023-02-18T21:02:14.292Z,102089.41
2023-02-18T21:04:58.014Z,102093.25
2023-02-18T21:07:29.196Z,102100.09
2023-02-18T21:09:58.399Z,102117.88
2023-02-18T21:12:27.657Z,102113.28
2023-02-18T21:14:58.095Z,102119.31
2023-02-18T21:17:27.885Z,102124.00
2023-02-18T21:19:56.040Z,102105.25
2023-02-18T21:22:29.246Z,102116.19
2023-02-18T21:24:59.460Z,102121.44
2023-02-18T21:27:27.773Z,102133.13
2023-02-18T21:29:56.475Z,102108.22
2023-02-18T21:32:29.671Z,102101.25
2023-02-18T21:34:57.879Z,102109.28
2023-02-18T21:37:26.100Z,102111.19
2023-02-18T21:39:54.195Z,102120.88
2023-02-18T21:42:24.651Z,102123.25
2023-02-18T21:44:52.948Z,102115.97
2023-02-18T21:47:26.131Z,102125.41
2023-02-18T21:50:02.475Z,102121.31
2023-02-18T21:52:46.804Z,102131.00
2023-02-18T21:55:15.469Z,102137.22
2023-02-18T21:57:44.372Z,102133.56
2023-02-18T22:00:21.152Z,102138.25
2023-02-18T22:02:56.720Z,102125.72
2023-02-18T22:05:28.669Z,102140.19
2023-02-18T22:07:57.117Z,102141.03
2023-02-18T22:10:25.240Z,102136.66
2023-02-18T22:12:53.385Z,102133.41
2023-02-18T22:15:21.458Z,102147.56
2023-02-18T22:17:49.656Z,102144.88
2023-02-18T22:20:17.794Z,102144.13
2023-02-18T22:22:47.685Z,102144.22
2023-02-18T22:25:16.162Z,102141.53
2023-02-18T22:27:44.543Z,102155.59
2023-02-18T22:30:13.505Z,102151.50
2023-02-18T22:32:41.558Z,102152.34
2023-02-18T22:35:09.868Z,102166.63
2023-02-18T22:37:37.877Z,102168.44
2023-02-18T22:40:07.844Z,102177.44
2023-02-18T22:42:36.649Z,102172.84
2023-02-18T22:45:05.014Z,102167.47
2023-02-18T22:47:32.992Z,102167.47
2023-02-18T22:50:01.079Z,102171.69
2023-02-18T22:52:29.173Z,102174.34
2023-02-18T22:54:57.320Z,102187.75
2023-02-18T22:57:26.791Z,102184.34
2023-02-18T22:59:54.953Z,102187.75
2023-02-18T23:02:25.352Z,102188.53
2023-02-18T23:04:53.617Z,102191.22
2023-02-18T23:07:24.711Z,102182.31
2023-02-18T23:09:53.447Z,102192.94
2023-02-18T23:12:27.273Z,102206.63
2023-02-18T23:14:57.561Z,102202.13
2023-02-18T23:17:26.347Z,102199.44
2023-02-18T23:19:55.367Z,102208.34
2023-02-18T23:22:28.387Z,102214.47
2023-02-18T23:24:56.326Z,102222.03
2023-02-18T23:27:25.437Z,102231.16
2023-02-18T23:29:53.994Z,102229.50
2023-02-18T23:32:23.677Z,102237.75
2023-02-18T23:34:51.966Z,102228.66
2023-02-18T23:37:43.656Z,102228.53
2023-02-18T23:40:13.825Z,102241.09
2023-02-18T23:42:42.126Z,102252.00
2023-02-18T23:45:11.404Z,102254.78
2023-02-18T23:47:40.778Z,102244.06
2023-02-18T23:50:08.920Z,102252.19
2023-02-18T23:52:37.016Z,102252.31
2023-02-18T23:55:05.231Z,102249.63
2023-02-18T23:57:33.147Z,102247.88
